Time;durP1;ratioP1;P1;durP2;ratioP2;P2;SDS_P1;SDS_P2;PMS_P1;PMS_P2;Temp;Humidity;BMP_temperature;BMP_pressure;BME280_temperature;BME280_humidity;BME280_pressure;Samples;Min_cycle;Max_cycle;Signal;HPM_P1;HPM_P2
2021/06/23 00:01:53;;;;;;;7.37;5.63;;;17.70;99.90;;;;;;5049860;28;20452;-69
2021/06/23 00:04:19;;;;;;;7.60;6.30;;;17.80;99.90;;;;;;5049911;28;20440;-69
2021/06/23 00:06:46;;;;;;;7.53;6.83;;;17.80;99.90;;;;;;5049330;28;20550;-70
2021/06/23 00:09:13;;;;;;;7.63;6.30;;;17.90;99.90;;;;;;5048952;28;20479;-69
2021/06/23 00:11:44;;;;;;;9.30;7.07;;;17.90;99.90;;;;;;5050066;28;20480;-69
2021/06/23 00:14:11;;;;;;;7.77;6.20;;;17.80;99.90;;;;;;5049985;28;20436;-69
2021/06/23 00:16:41;;;;;;;9.37;7.20;;;17.80;99.90;;;;;;5049306;28;20531;-69
2021/06/23 00:19:08;;;;;;;7.90;6.97;;;17.90;99.90;;;;;;5048943;28;20531;-69
2021/06/23 00:21:35;;;;;;;8.67;6.47;;;17.90;99.90;;;;;;5049828;28;20905;-70
2021/06/23 00:24:02;;;;;;;7.40;5.97;;;17.90;99.90;;;;;;5052667;28;20874;-70
2021/06/23 00:26:31;;;;;;;6.73;6.03;;;17.90;99.90;;;;;;5053115;28;20436;-69
2021/06/23 00:28:58;;;;;;;8.83;7.13;;;17.90;99.90;;;;;;5052859;28;20460;-69
2021/06/23 00:31:26;;;;;;;8.50;6.60;;;17.90;99.90;;;;;;5053455;28;20535;-70
2021/06/23 00:33:56;;;;;;;10.20;6.10;;;17.90;99.90;;;;;;5053717;28;20462;-70
2021/06/23 00:36:23;;;;;;;8.50;7.03;;;17.80;99.90;;;;;;5053003;28;20566;-69
2021/06/23 00:38:50;;;;;;;8.87;6.70;;;17.80;99.90;;;;;;5053645;28;20555;-69
2021/06/23 00:41:19;;;;;;;7.17;6.40;;;17.80;99.90;;;;;;5052831;28;20550;-70
2021/06/23 00:43:46;;;;;;;10.47;8.33;;;17.80;99.90;;;;;;5053011;28;20999;-70
2021/06/23 00:46:14;;;;;;;9.07;8.07;;;17.80;99.90;;;;;;5052517;28;20550;-69
2021/06/23 00:48:41;;;;;;;7.97;6.80;;;17.80;99.90;;;;;;5053047;28;20470;-69
2021/06/23 00:51:11;;;;;;;7.10;6.27;;;17.80;99.90;;;;;;5052224;28;20527;-69
2021/06/23 00:53:38;;;;;;;10.37;7.50;;;17.80;99.90;;;;;;5052556;28;20542;-70
2021/06/23 00:56:05;;;;;;;10.50;8.10;;;17.70;99.90;;;;;;5052120;28;20476;-69
2021/06/23 00:58:32;;;;;;;12.03;8.50;;;17.80;99.90;;;;;;5052213;28;20475;-70
2021/06/23 01:00:59;;;;;;;10.27;9.27;;;17.80;99.90;;;;;;5051667;28;20796;-70
2021/06/23 01:03:26;;;;;;;12.47;10.70;;;17.80;99.90;;;;;;5052602;28;20442;-70
2021/06/23 01:05:54;;;;;;;12.60;9.73;;;17.70;99.90;;;;;;5052411;28;20448;-69
2021/06/23 01:08:23;;;;;;;11.87;10.17;;;17.70;99.90;;;;;;5052559;28;20568;-70
2021/06/23 01:10:50;;;;;;;14.03;10.73;;;17.70;99.90;;;;;;5051720;28;20448;-70
2021/06/23 01:13:34;;;;;;;15.80;12.30;;;17.70;99.90;;;;;;5052108;28;20554;-70
2021/06/23 01:16:03;;;;;;;13.43;10.90;;;17.80;99.90;;;;;;5052041;28;20500;-69
2021/06/23 01:18:30;;;;;;;11.37;10.17;;;17.80;99.90;;;;;;5051851;28;20472;-70
2021/06/23 01:20:58;;;;;;;13.53;9.63;;;17.80;99.90;;;;;;5051267;28;20831;-70
2021/06/23 01:23:26;;;;;;;17.00;10.60;;;17.80;99.90;;;;;;5052009;28;20446;-70
2021/06/23 01:25:53;;;;;;;14.00;9.77;;;17.80;99.90;;;;;;5051449;28;20950;-69
2021/06/23 01:28:21;;;;;;;10.77;8.70;;;17.80;99.90;;;;;;5052122;28;20551;-70
2021/06/23 01:30:48;;;;;;;10.87;9.87;;;17.70;99.90;;;;;;5051588;28;20452;-72
2021/06/23 01:33:16;;;;;;;19.90;11.40;;;17.60;99.90;;;;;;5052104;28;20623;-70
2021/06/23 01:35:47;;;;;;;14.17;10.50;;;17.40;99.90;;;;;;5051675;28;20575;-70
2021/06/23 01:38:15;;;;;;;14.33;10.60;;;17.40;99.90;;;;;;5051736;28;20464;-71
2021/06/23 01:40:43;;;;;;;12.40;10.80;;;17.40;99.90;;;;;;5051216;28;20475;-72
2021/06/23 01:43:11;;;;;;;10.43;8.80;;;17.50;99.90;;;;;;5052022;28;20534;-70
2021/06/23 01:45:38;;;;;;;10.47;9.47;;;17.50;99.90;;;;;;5052019;28;20531;-70
2021/06/23 01:48:06;;;;;;;13.77;11.20;;;17.40;99.90;;;;;;5051490;28;20551;-71
2021/06/23 01:50:33;;;;;;;12.90;9.63;;;17.40;99.90;;;;;;5050877;28;20535;-70
2021/06/23 01:53:00;;;;;;;11.63;10.53;;;17.40;99.90;;;;;;5051723;28;20478;-70
2021/06/23 01:55:28;;;;;;;10.70;9.70;;;17.40;99.90;;;;;;5051437;28;20519;-70
2021/06/23 01:58:00;;;;;;;11.50;10.40;;;17.40;99.90;;;;;;5051148;28;20563;-70
2021/06/23 02:00:41;;;;;;;12.40;10.60;;;17.40;99.90;;;;;;5050590;28;20491;-70
2021/06/23 02:03:16;;;;;;;12.43;11.20;;;17.40;99.90;;;;;;5051828;28;20850;-70
2021/06/23 02:06:04;;;;;;;14.63;10.47;;;17.30;99.90;;;;;;5051619;28;20435;-70
2021/06/23 02:08:48;;;;;;;15.60;10.93;;;17.30;99.90;;;;;;5051557;28;21004;-70
2021/06/23 02:11:34;;;;;;;11.00;9.40;;;17.30;99.90;;;;;;5050731;28;20436;-70
2021/06/23 02:14:36;;;;;;;12.03;10.43;;;17.30;99.90;;;;;;5051516;28;20531;-70
2021/06/23 02:17:07;;;;;;;12.03;10.53;;;17.30;99.90;;;;;;5050739;28;20483;-70
2021/06/23 02:19:39;;;;;;;13.03;10.80;;;17.20;99.90;;;;;;5050761;28;20486;-70
2021/06/23 02:22:11;;;;;;;11.30;9.93;;;17.30;99.90;;;;;;5050526;28;20534;-70
2021/06/23 02:24:38;;;;;;;14.07;10.90;;;17.30;99.90;;;;;;5051287;28;21013;-70
2021/06/23 02:27:05;;;;;;;12.50;11.30;;;17.20;99.90;;;;;;5050953;28;20460;-70
2021/06/23 02:29:33;;;;;;;13.53;11.50;;;17.10;99.90;;;;;;5050549;28;20540;-70
2021/06/23 02:32:01;;;;;;;15.63;11.03;;;17.00;99.90;;;;;;5051126;28;20479;-70
2021/06/23 02:34:29;;;;;;;12.60;11.40;;;16.90;99.90;;;;;;5050856;28;20479;-70
2021/06/23 02:36:56;;;;;;;13.80;11.07;;;16.90;99.90;;;;;;5050524;28;20580;-70
2021/06/23 02:39:23;;;;;;;14.60;11.47;;;16.90;99.90;;;;;;5049864;28;20447;-70
2021/06/23 02:41:50;;;;;;;15.20;12.07;;;16.90;99.90;;;;;;5051044;28;20529;-71
2021/06/23 02:44:18;;;;;;;15.43;10.80;;;16.80;99.90;;;;;;5050555;28;20927;-70
2021/06/23 02:46:44;;;;;;;12.13;10.93;;;16.70;99.90;;;;;;5049266;28;20523;-70
2021/06/23 02:49:11;;;;;;;15.97;13.20;;;16.70;99.90;;;;;;5049917;28;20539;-70
2021/06/23 02:51:41;;;;;;;13.30;11.37;;;16.70;99.90;;;;;;5050384;28;20448;-70
2021/06/23 02:54:09;;;;;;;13.80;12.40;;;16.70;99.90;;;;;;5050426;28;20509;-70
2021/06/23 02:56:37;;;;;;;14.33;12.93;;;16.70;99.90;;;;;;5049958;28;20901;-70
2021/06/23 02:59:04;;;;;;;16.97;13.43;;;16.70;99.90;;;;;;5049933;28;20491;-70
2021/06/23 03:01:32;;;;;;;13.47;12.07;;;16.70;99.90;;;;;;5050432;28;20447;-70
2021/06/23 03:03:59;;;;;;;14.33;12.53;;;16.70;99.90;;;;;;5050494;28;20543;-70
2021/06/23 03:06:26;;;;;;;13.63;11.57;;;16.70;99.90;;;;;;5050433;28;20526;-70
2021/06/23 03:08:55;;;;;;;13.20;11.70;;;16.80;99.90;;;;;;5049918;28;20986;-69
2021/06/23 03:11:22;;;;;;;13.20;11.90;;;16.90;99.90;;;;;;5050237;28;20535;-70
2021/06/23 03:13:49;;;;;;;15.40;13.17;;;16.80;99.90;;;;;;5050695;28;20531;-70
2021/06/23 03:16:16;;;;;;;15.07;11.57;;;16.90;99.90;;;;;;5049951;28;20567;-71
2021/06/23 03:18:43;;;;;;;14.50;12.47;;;16.80;99.90;;;;;;5050027;28;20554;-71
2021/06/23 03:21:10;;;;;;;13.57;12.17;;;16.70;99.90;;;;;;5049640;28;20535;-69
2021/06/23 03:23:38;;;;;;;14.33;12.83;;;16.70;99.90;;;;;;5050432;28;20451;-69
2021/06/23 03:26:06;;;;;;;25.83;17.07;;;16.70;99.90;;;;;;5049653;28;20455;-69
2021/06/23 03:28:33;;;;;;;18.93;14.90;;;16.70;99.90;;;;;;5049963;28;20557;-69
2021/06/23 03:31:00;;;;;;;22.07;16.40;;;16.70;99.90;;;;;;5049126;28;20535;-69
2021/06/23 03:33:27;;;;;;;16.50;15.00;;;16.70;99.90;;;;;;5050024;28;20559;-68
2021/06/23 03:35:54;;;;;;;16.00;14.20;;;16.80;99.90;;;;;;5049929;28;20482;-67
2021/06/23 03:38:21;;;;;;;18.27;15.20;;;16.90;99.90;;;;;;5049950;28;20550;-68
2021/06/23 03:40:48;;;;;;;16.17;14.47;;;16.90;99.90;;;;;;5049265;28;20907;-68
2021/06/23 03:43:17;;;;;;;17.50;15.30;;;16.90;99.90;;;;;;5049900;28;20821;-69
2021/06/23 03:45:44;;;;;;;21.57;15.73;;;17.00;99.90;;;;;;5049943;28;20456;-69
2021/06/23 03:48:11;;;;;;;16.57;13.97;;;17.00;99.90;;;;;;5049181;28;21033;-69
2021/06/23 03:50:38;;;;;;;16.30;14.40;;;17.00;99.90;;;;;;5048692;28;20436;-69
2021/06/23 03:53:06;;;;;;;17.37;13.77;;;17.10;99.90;;;;;;5049973;28;20454;-69
2021/06/23 03:55:33;;;;;;;16.13;13.07;;;17.20;99.90;;;;;;5049868;28;20456;-69
2021/06/23 03:58:00;;;;;;;14.67;13.07;;;17.20;99.90;;;;;;5050458;28;20948;-68
2021/06/23 04:00:30;;;;;;;13.17;11.87;;;17.20;99.90;;;;;;5052843;28;20459;-69
2021/06/23 04:02:57;;;;;;;13.67;12.17;;;17.20;99.90;;;;;;5053970;28;20531;-69
2021/06/23 04:05:25;;;;;;;15.00;12.40;;;17.10;99.90;;;;;;5054399;28;20439;-70
2021/06/23 04:07:52;;;;;;;14.10;12.90;;;17.10;99.90;;;;;;5053237;28;20502;-69
2021/06/23 04:10:19;;;;;;;13.17;11.83;;;17.10;99.90;;;;;;5052678;28;20469;-68
2021/06/23 04:12:46;;;;;;;13.60;12.20;;;17.10;99.90;;;;;;5053822;28;20451;-68
2021/06/23 04:15:15;;;;;;;13.77;11.93;;;17.20;99.90;;;;;;5053779;28;20968;-68
2021/06/23 04:17:43;;;;;;;14.20;12.70;;;17.30;99.90;;;;;;5053155;28;20479;-68
2021/06/23 04:20:12;;;;;;;17.50;12.17;;;17.30;99.90;;;;;;5052600;28;20531;-67
2021/06/23 04:22:39;;;;;;;16.27;11.83;;;17.30;99.90;;;;;;5053352;28;20452;-67
2021/06/23 04:25:10;;;;;;;14.83;12.63;;;17.40;99.90;;;;;;5053328;28;20450;-69
2021/06/23 04:27:37;;;;;;;13.53;11.50;;;17.40;99.90;;;;;;5052650;28;21050;-69
2021/06/23 04:30:06;;;;;;;15.73;11.43;;;17.40;99.90;;;;;;5052528;28;20912;-71
2021/06/23 04:32:33;;;;;;;12.57;11.27;;;17.40;99.90;;;;;;5053086;28;20447;-69
2021/06/23 04:35:05;;;;;;;12.30;11.10;;;17.40;99.90;;;;;;5053304;28;20539;-68
2021/06/23 04:37:32;;;;;;;12.40;11.20;;;17.40;99.90;;;;;;5052426;28;21142;-68
2021/06/23 04:40:00;;;;;;;12.70;10.10;;;17.40;99.90;;;;;;5052444;28;20448;-68
2021/06/23 04:42:27;;;;;;;12.20;10.73;;;17.50;99.90;;;;;;5051666;28;20547;-67
2021/06/23 04:44:54;;;;;;;11.57;10.27;;;17.60;99.90;;;;;;5071472;28;20475;-69
2021/06/23 04:47:21;;;;;;;11.27;10.17;;;17.70;99.90;;;;;;5070897;28;20545;-68
2021/06/23 04:49:48;;;;;;;9.97;9.07;;;17.70;99.90;;;;;;5072055;28;21071;-69
2021/06/23 04:52:16;;;;;;;9.90;9.00;;;17.70;99.90;;;;;;5072393;28;20483;-67
2021/06/23 04:54:43;;;;;;;12.23;8.43;;;17.80;99.90;;;;;;5071311;28;20533;-67
2021/06/23 04:57:11;;;;;;;11.00;8.73;;;17.70;99.90;;;;;;5072661;28;20574;-68
2021/06/23 04:59:38;;;;;;;8.87;8.00;;;17.70;99.90;;;;;;5072369;28;20545;-67
2021/06/23 05:02:05;;;;;;;12.47;7.60;;;17.70;99.90;;;;;;5072792;28;20451;-66
2021/06/23 05:04:33;;;;;;;10.40;8.10;;;17.70;99.90;;;;;;5057997;28;20536;-68
2021/06/23 05:07:02;;;;;;;8.30;6.63;;;17.80;99.90;;;;;;5049591;28;20475;-68
2021/06/23 05:09:30;;;;;;;8.47;7.60;;;17.90;99.90;;;;;;5051800;28;20475;-67
2021/06/23 05:11:57;;;;;;;9.23;6.97;;;18.00;99.90;;;;;;5052562;28;20452;-68
2021/06/23 05:14:24;;;;;;;6.77;6.10;;;18.20;99.90;;;;;;5052620;28;20535;-67
2021/06/23 05:16:51;;;;;;;6.70;6.00;;;18.20;99.90;;;;;;5050676;28;20484;-67
2021/06/23 05:19:19;;;;;;;5.80;5.07;;;18.20;99.90;;;;;;5053058;28;20440;-66
2021/06/23 05:21:46;;;;;;;5.37;4.83;;;18.20;99.90;;;;;;5053605;28;21178;-66
2021/06/23 05:24:13;;;;;;;6.27;5.63;;;18.10;99.90;;;;;;5053685;28;20483;-68
2021/06/23 05:26:41;;;;;;;6.07;4.80;;;18.00;99.90;;;;;;5053965;28;20448;-68
2021/06/23 05:29:09;;;;;;;5.70;4.83;;;18.00;99.90;;;;;;5052646;28;20558;-67
2021/06/23 05:31:36;;;;;;;11.63;6.47;;;18.00;99.90;;;;;;5053083;28;20864;-68
2021/06/23 05:34:03;;;;;;;7.70;5.93;;;18.10;99.90;;;;;;5053548;28;20507;-68
2021/06/23 05:36:30;;;;;;;6.80;6.10;;;18.20;99.90;;;;;;5051634;28;20550;-71
2021/06/23 05:38:57;;;;;;;10.03;6.57;;;18.30;99.90;;;;;;5051361;28;20468;-66
2021/06/23 05:41:24;;;;;;;7.60;5.27;;;18.60;99.90;;;;;;5047865;28;20458;-69
2021/06/23 05:43:52;;;;;;;6.20;5.60;;;18.80;99.90;;;;;;5047498;28;20515;-67
2021/06/23 05:46:20;;;;;;;7.53;4.80;;;18.80;99.90;;;;;;5045709;28;20954;-67
2021/06/23 05:48:47;;;;;;;6.63;4.30;;;18.90;99.90;;;;;;5051385;28;20495;-68
2021/06/23 05:51:14;;;;;;;6.17;5.57;;;19.30;99.90;;;;;;5051137;28;20530;-72
2021/06/23 05:53:40;;;;;;;6.90;4.60;;;19.60;99.90;;;;;;5051370;28;20486;-68
2021/06/23 05:56:07;;;;;;;3.93;3.20;;;19.80;99.90;;;;;;5051101;28;20523;-68
2021/06/23 05:58:34;;;;;;;5.27;3.33;;;20.00;99.90;;;;;;5051448;28;20558;-68
2021/06/23 06:01:05;;;;;;;4.27;3.33;;;20.10;99.90;;;;;;5050764;28;20478;-66
2021/06/23 06:03:32;;;;;;;5.47;3.70;;;20.10;99.90;;;;;;5053431;28;20451;-66
2021/06/23 06:05:59;;;;;;;4.87;3.53;;;20.20;99.90;;;;;;5052000;28;20975;-67
2021/06/23 06:08:26;;;;;;;5.67;4.50;;;20.30;99.90;;;;;;5051368;28;20626;-66
2021/06/23 06:10:54;;;;;;;7.33;4.97;;;20.20;99.90;;;;;;5050642;28;20535;-68
2021/06/23 06:13:21;;;;;;;5.47;4.93;;;20.20;99.90;;;;;;5051217;28;20442;-67
2021/06/23 06:15:48;;;;;;;5.73;4.60;;;20.10;99.90;;;;;;5050872;28;20527;-67
2021/06/23 06:18:16;;;;;;;8.23;5.10;;;20.20;99.90;;;;;;5050363;28;21072;-66
2021/06/23 06:20:43;;;;;;;7.77;4.83;;;20.20;99.90;;;;;;5049848;28;20456;-67
2021/06/23 06:23:10;;;;;;;5.00;3.80;;;20.40;99.90;;;;;;5050751;28;21038;-67
2021/06/23 06:25:37;;;;;;;6.00;4.10;;;20.40;99.90;;;;;;5051014;28;20531;-69
2021/06/23 06:28:06;;;;;;;4.47;3.53;;;20.50;99.90;;;;;;5049993;28;20469;-68
2021/06/23 06:30:33;;;;;;;5.00;3.23;;;20.40;99.90;;;;;;5050064;28;20482;-68
2021/06/23 06:32:59;;;;;;;5.23;3.67;;;20.50;99.90;;;;;;5050808;28;20534;-68
2021/06/23 06:35:28;;;;;;;4.00;3.03;;;20.60;99.90;;;;;;5050591;28;20484;-67
2021/06/23 06:37:56;;;;;;;9.13;3.43;;;20.70;99.90;;;;;;5049968;28;20490;-68
2021/06/23 06:40:23;;;;;;;8.60;3.50;;;20.90;99.90;;;;;;5049790;28;20456;-69
2021/06/23 06:42:51;;;;;;;4.60;2.80;;;21.00;99.90;;;;;;5050443;28;20535;-67
2021/06/23 06:45:18;;;;;;;4.37;3.27;;;20.90;99.90;;;;;;5050363;28;20535;-68
2021/06/23 06:47:45;;;;;;;3.40;2.70;;;20.90;99.90;;;;;;5050081;28;20886;-68
2021/06/23 06:50:13;;;;;;;4.53;2.83;;;20.70;99.90;;;;;;5049415;28;20451;-67
2021/06/23 06:52:41;;;;;;;5.07;2.73;;;20.60;99.90;;;;;;5050410;28;20531;-67
2021/06/23 06:55:09;;;;;;;4.87;2.50;;;20.50;99.90;;;;;;5050110;28;20530;-67
2021/06/23 06:57:36;;;;;;;8.27;2.90;;;20.40;99.90;;;;;;5049991;28;20494;-67
2021/06/23 07:00:05;;;;;;;3.47;2.63;;;20.10;99.90;;;;;;5049269;28;20460;-68
2021/06/23 07:02:32;;;;;;;5.57;2.73;;;20.00;99.90;;;;;;5050267;28;20531;-69
2021/06/23 07:04:59;;;;;;;3.93;2.70;;;20.00;99.90;;;;;;5050794;28;20448;-69
2021/06/23 07:07:26;;;;;;;4.40;2.50;;;20.00;99.90;;;;;;5050566;28;20550;-69
2021/06/23 07:09:54;;;;;;;4.67;3.00;;;20.00;99.90;;;;;;5050135;28;20977;-69
2021/06/23 07:12:21;;;;;;;4.07;3.30;;;19.90;99.90;;;;;;5050803;28;20547;-69
2021/06/23 07:14:48;;;;;;;4.10;3.27;;;20.00;99.90;;;;;;5050711;28;20484;-69
2021/06/23 07:17:14;;;;;;;4.37;3.10;;;20.00;99.90;;;;;;5050139;28;20492;-68
2021/06/23 07:19:41;;;;;;;3.77;3.30;;;20.00;99.90;;;;;;5049733;28;20470;-68
2021/06/23 07:22:08;;;;;;;4.07;3.50;;;20.10;99.90;;;;;;5049874;28;20448;-68
2021/06/23 07:24:35;;;;;;;4.10;3.03;;;20.20;99.90;;;;;;5050427;28;20448;-68
2021/06/23 07:27:05;;;;;;;5.10;3.03;;;20.40;99.90;;;;;;5049896;28;20558;-69
2021/06/23 07:29:32;;;;;;;5.03;3.17;;;20.50;99.90;;;;;;5049808;28;20523;-69
2021/06/23 07:32:01;;;;;;;6.87;2.70;;;20.50;99.90;;;;;;5049831;28;20480;-68
2021/06/23 07:37:24;;;;;;;5.73;2.53;;;20.60;99.90;;;;;;5049522;28;20504;-68
2021/06/23 07:39:52;;;;;;;4.40;3.00;;;20.70;99.90;;;;;;5049392;28;20479;-68
2021/06/23 07:42:21;;;;;;;3.20;2.90;;;20.70;99.90;;;;;;5050306;28;20534;-69
2021/06/23 07:44:52;;;;;;;5.23;3.10;;;20.70;99.90;;;;;;5051019;28;20451;-68
2021/06/23 07:47:21;;;;;;;3.70;3.00;;;20.80;99.90;;;;;;5049837;28;20472;-69
2021/06/23 07:49:48;;;;;;;3.87;2.90;;;20.90;99.90;;;;;;5049384;28;20558;-68
2021/06/23 07:52:22;;;;;;;3.70;2.83;;;20.90;99.90;;;;;;5050575;28;20539;-69
2021/06/23 07:55:02;;;;;;;3.57;2.60;;;21.10;99.90;;;;;;5050191;28;20944;-69
2021/06/23 08:08:45;;;;;;;5.50;3.20;;;21.40;99.90;;;;;;5050057;28;20479;-69
2021/06/23 08:11:20;;;;;;;3.40;2.60;;;21.50;99.90;;;;;;5049440;28;20435;-68
2021/06/23 08:13:49;;;;;;;4.00;2.73;;;21.60;99.90;;;;;;5049837;28;20454;-69
2021/06/23 08:16:17;;;;;;;3.50;2.80;;;21.90;99.90;;;;;;5049656;28;20444;-68
2021/06/23 08:18:43;;;;;;;5.20;2.60;;;22.20;99.90;;;;;;5049761;28;20582;-68
2021/06/23 08:21:10;;;;;;;4.23;2.90;;;22.30;99.90;;;;;;5049045;28;20527;-69
2021/06/23 08:23:38;;;;;;;4.20;2.30;;;22.40;99.90;;;;;;5050056;28;20452;-69
2021/06/23 08:26:05;;;;;;;3.83;2.10;;;22.60;99.90;;;;;;5049679;28;20534;-69
2021/06/23 08:28:31;;;;;;;4.63;2.73;;;22.80;99.90;;;;;;5049294;28;20547;-70
2021/06/23 08:31:00;;;;;;;3.20;2.47;;;23.10;99.90;;;;;;5048524;28;20539;-69
2021/06/23 08:33:27;;;;;;;3.77;2.30;;;23.20;99.90;;;;;;5049497;28;20483;-69
2021/06/23 08:35:54;;;;;;;4.93;2.90;;;23.40;99.90;;;;;;5049753;28;20875;-69
2021/06/23 08:38:22;;;;;;;4.07;2.73;;;23.50;99.90;;;;;;5049660;28;20896;-69
2021/06/23 08:40:50;;;;;;;4.53;2.70;;;23.80;99.90;;;;;;5048729;28;20454;-68
2021/06/23 08:43:18;;;;;;;4.30;2.20;;;24.20;99.90;;;;;;5050043;28;20446;-68
2021/06/23 08:45:45;;;;;;;4.50;2.50;;;24.40;99.90;;;;;;5053251;28;20536;-70
2021/06/23 08:48:14;;;;;;;3.50;2.30;;;24.50;99.90;;;;;;5052399;28;20927;-69
2021/06/23 08:50:41;;;;;;;4.07;2.43;;;24.50;99.90;;;;;;5051909;28;20452;-69
2021/06/23 08:53:09;;;;;;;3.13;2.30;;;24.90;99.90;;;;;;5052585;28;20444;-69
2021/06/23 08:55:37;;;;;;;3.30;2.30;;;25.40;99.90;;;;;;5052501;28;20894;-70
2021/06/23 08:58:05;;;;;;;3.53;2.30;;;26.10;99.90;;;;;;5051784;28;20479;-70
2021/06/23 09:00:32;;;;;;;3.30;1.97;;;26.70;99.90;;;;;;5051518;28;20985;-69
2021/06/23 09:03:01;;;;;;;3.93;2.10;;;27.10;99.90;;;;;;5052178;28;20535;-69
2021/06/23 09:05:47;;;;;;;3.07;2.23;;;26.90;99.90;;;;;;5052299;28;20455;-70
2021/06/23 09:08:14;;;;;;;5.43;2.80;;;27.00;99.90;;;;;;5052243;28;20468;-68
2021/06/23 09:10:41;;;;;;;3.33;2.07;;;26.60;99.90;;;;;;5052640;28;20527;-70
2021/06/23 09:13:18;;;;;;;5.90;2.63;;;26.60;99.90;;;;;;5052736;28;20538;-69
2021/06/23 09:15:48;;;;;;;3.10;2.23;;;26.60;99.90;;;;;;5052103;28;21064;-70
2021/06/23 09:18:17;;;;;;;3.77;2.10;;;26.90;99.90;;;;;;5051499;28;21080;-69
2021/06/23 09:20:47;;;;;;;3.60;1.93;;;26.80;99.90;;;;;;5051145;28;20599;-69
2021/06/23 09:23:15;;;;;;;4.13;2.10;;;26.70;99.90;;;;;;5052094;28;20440;-68
2021/06/23 09:25:45;;;;;;;2.80;1.97;;;26.40;99.90;;;;;;5052027;28;20538;-69
2021/06/23 09:28:17;;;;;;;4.10;1.67;;;26.00;99.90;;;;;;5051662;28;20555;-69
2021/06/23 09:30:45;;;;;;;4.50;1.83;;;25.80;99.90;;;;;;5051354;28;20905;-69
2021/06/23 09:33:18;;;;;;;3.00;1.70;;;25.50;99.90;;;;;;5051976;28;20448;-69
2021/06/23 09:35:48;;;;;;;12.03;3.60;;;25.30;99.90;;;;;;5052674;28;20447;-69
2021/06/23 09:38:39;;;;;;;2.50;1.50;;;25.40;99.90;;;;;;5052282;28;20699;-69
2021/06/23 09:41:18;;;;;;;3.17;2.03;;;25.40;99.90;;;;;;5051306;28;20962;-68
2021/06/23 09:43:48;;;;;;;2.40;1.50;;;25.60;99.90;;;;;;5052087;28;20436;-69
2021/06/23 09:46:17;;;;;;;2.70;1.80;;;25.80;99.90;;;;;;5051871;28;20875;-69
2021/06/23 09:48:44;;;;;;;3.53;1.70;;;25.80;99.90;;;;;;5051850;28;20466;-70
2021/06/23 09:51:15;;;;;;;2.40;1.27;;;25.80;99.90;;;;;;5050961;28;20539;-69
2021/06/23 09:53:42;;;;;;;3.23;1.57;;;26.00;99.90;;;;;;5051330;28;20519;-70
2021/06/23 09:56:31;;;;;;;2.60;1.40;;;26.10;99.90;;;;;;5050338;28;20531;-68
2021/06/23 09:58:59;;;;;;;2.27;1.40;;;26.50;99.90;;;;;;5050249;28;20592;-70
2021/06/23 10:01:28;;;;;;;2.80;1.83;;;27.20;99.90;;;;;;5051089;28;20484;-69
2021/06/23 10:04:00;;;;;;;2.20;1.20;;;27.80;99.90;;;;;;5051316;28;20444;-70
2021/06/23 10:06:31;;;;;;;2.30;1.17;;;28.30;99.90;;;;;;5050988;28;20452;-70
2021/06/23 10:09:23;;;;;;;3.00;1.20;;;29.00;99.90;;;;;;5050165;28;20500;-69
2021/06/23 10:11:53;;;;;;;2.47;1.20;;;29.60;96.20;;;;;;5051442;28;20454;-70
2021/06/23 10:14:20;;;;;;;2.33;0.93;;;29.60;95.60;;;;;;5050890;28;21059;-70
2021/06/23 10:16:48;;;;;;;2.30;1.20;;;29.50;96.40;;;;;;5050825;28;20458;-70
2021/06/23 10:19:16;;;;;;;2.57;1.20;;;29.30;98.70;;;;;;5050146;28;20599;-70
2021/06/23 10:21:45;;;;;;;2.57;1.40;;;29.90;96.60;;;;;;5051094;28;20452;-70
2021/06/23 10:24:14;;;;;;;2.27;1.10;;;30.30;95.80;;;;;;5051262;28;20450;-70
2021/06/23 10:26:46;;;;;;;2.73;1.20;;;30.70;94.50;;;;;;5050657;28;20486;-70
2021/06/23 10:29:15;;;;;;;2.20;1.03;;;30.90;95.30;;;;;;5049860;28;20436;-72
2021/06/23 10:31:43;;;;;;;2.60;1.30;;;30.70;93.70;;;;;;5050737;28;20444;-69
2021/06/23 10:34:10;;;;;;;2.50;1.33;;;30.10;93.00;;;;;;5050630;28;20535;-68
2021/06/23 10:36:38;;;;;;;2.27;1.20;;;29.30;93.10;;;;;;5050095;28;20450;-70
2021/06/23 10:39:07;;;;;;;2.40;1.20;;;28.70;94.20;;;;;;5050002;28;20482;-69
2021/06/23 10:41:39;;;;;;;3.07;1.40;;;28.80;94.90;;;;;;5050484;28;20531;-71
2021/06/23 10:44:18;;;;;;;2.70;1.00;;;29.20;97.00;;;;;;5050240;28;20447;-70
2021/06/23 10:46:45;;;;;;;3.23;1.07;;;30.20;94.90;;;;;;5050210;28;20444;-69
2021/06/23 10:49:16;;;;;;;3.03;1.10;;;30.40;92.20;;;;;;5050071;28;20443;-70
2021/06/23 10:51:45;;;;;;;3.53;1.40;;;30.80;94.10;;;;;;5050652;28;20471;-70
2021/06/23 10:54:40;;;;;;;2.70;1.10;;;31.40;91.20;;;;;;5050273;28;20515;-70
2021/06/23 10:57:24;;;;;;;2.47;0.90;;;31.70;88.90;;;;;;5049669;28;20464;-68
2021/06/23 10:59:52;;;;;;;2.10;1.00;;;31.90;90.30;;;;;;5048071;28;21017;-69
2021/06/23 11:02:27;;;;;;;2.27;0.90;;;32.60;83.60;;;;;;5050986;28;20817;-69
2021/06/23 11:05:11;;;;;;;1.83;0.80;;;33.00;81.90;;;;;;5051562;28;20527;-68
2021/06/23 11:07:41;;;;;;;2.10;0.83;;;33.00;74.60;;;;;;5050044;28;20559;-69
2021/06/23 11:10:31;;;;;;;21.80;3.50;;;32.80;71.00;;;;;;5049064;28;20463;-67
2021/06/23 11:13:00;;;;;;;3.10;0.90;;;32.50;71.30;;;;;;5051389;28;20570;-69
2021/06/23 11:15:42;;;;;;;2.17;0.80;;;31.90;72.20;;;;;;5049857;28;20440;-69
2021/06/23 11:18:35;;;;;;;2.73;0.93;;;31.50;73.30;;;;;;5049157;28;20840;-70
2021/06/23 11:21:13;;;;;;;2.93;0.80;;;31.40;80.70;;;;;;5047211;28;20459;-68
2021/06/23 11:23:55;;;;;;;2.10;0.80;;;31.50;87.90;;;;;;5049856;28;20455;-69
2021/06/23 11:26:56;;;;;;;2.37;1.17;;;31.10;84.30;;;;;;5049426;28;20535;-70
2021/06/23 11:29:25;;;;;;;1.90;0.80;;;31.50;84.90;;;;;;5049348;28;20443;-70
2021/06/23 11:31:55;;;;;;;2.40;0.90;;;32.30;82.00;;;;;;5033796;28;20502;-69
2021/06/23 11:34:42;;;;;;;1.93;0.80;;;33.00;78.80;;;;;;5031384;28;20449;-68
2021/06/23 11:37:11;;;;;;;3.00;1.03;;;33.20;71.80;;;;;;5037190;28;21072;-69
2021/06/23 11:39:38;;;;;;;2.50;1.20;;;33.90;76.60;;;;;;5038458;28;20567;-70
2021/06/23 11:42:07;;;;;;;2.10;0.83;;;34.40;78.00;;;;;;5037428;28;20534;-70
2021/06/23 11:44:36;;;;;;;2.07;0.87;;;34.50;71.10;;;;;;5040198;28;20436;-69
2021/06/23 11:47:03;;;;;;;2.00;0.87;;;34.70;72.00;;;;;;5044635;28;20536;-73
2021/06/23 11:49:30;;;;;;;3.20;1.53;;;34.60;70.70;;;;;;5048529;28;20523;-68
2021/06/23 11:51:58;;;;;;;2.00;0.90;;;34.30;68.20;;;;;;5049403;28;20593;-69
2021/06/23 11:54:25;;;;;;;2.40;0.83;;;34.10;71.20;;;;;;5049523;28;20480;-70
2021/06/23 11:56:53;;;;;;;2.10;0.83;;;34.40;73.60;;;;;;5049120;28;20442;-69
2021/06/23 11:59:21;;;;;;;1.93;0.90;;;34.90;72.60;;;;;;5048519;28;20664;-70
2021/06/23 12:01:48;;;;;;;2.10;1.00;;;35.10;72.20;;;;;;5046067;28;20535;-69
2021/06/23 12:04:15;;;;;;;1.90;0.73;;;35.20;72.20;;;;;;5049038;28;20535;-70
2021/06/23 12:06:42;;;;;;;1.90;0.70;;;35.30;71.30;;;;;;5048912;28;20479;-71
2021/06/23 12:09:09;;;;;;;3.07;0.77;;;35.90;70.70;;;;;;5048830;28;20448;-68
2021/06/23 12:11:36;;;;;;;2.93;1.00;;;36.40;66.60;;;;;;5049405;28;20533;-68
2021/06/23 12:14:03;;;;;;;2.00;0.90;;;36.80;60.10;;;;;;5049219;28;20899;-69
2021/06/23 12:16:32;;;;;;;2.00;1.00;;;37.10;64.10;;;;;;5049231;28;20880;-68
2021/06/23 12:18:59;;;;;;;1.80;0.70;;;37.20;59.60;;;;;;5050202;28;20905;-69
2021/06/23 12:21:26;;;;;;;2.10;1.00;;;36.50;58.30;;;;;;5053332;28;20502;-68
2021/06/23 12:23:53;;;;;;;2.23;0.90;;;35.80;60.10;;;;;;5048106;28;20870;-68
2021/06/23 12:26:22;;;;;;;2.20;1.03;;;36.10;67.50;;;;;;5052514;28;20443;-68
2021/06/23 12:28:50;;;;;;;2.20;1.00;;;35.70;61.90;;;;;;5052710;28;20472;-67
2021/06/23 12:31:17;;;;;;;3.60;1.00;;;34.20;69.70;;;;;;5052228;28;20487;-68
2021/06/23 12:33:46;;;;;;;2.20;1.03;;;33.30;70.80;;;;;;5052810;28;20948;-69
2021/06/23 12:36:14;;;;;;;1.90;0.80;;;32.70;70.70;;;;;;5052539;28;20538;-67
2021/06/23 12:38:40;;;;;;;2.20;1.00;;;32.90;72.50;;;;;;5052661;28;20864;-67
2021/06/23 12:41:07;;;;;;;2.30;1.10;;;33.90;70.70;;;;;;5048741;28;20483;-68
2021/06/23 12:43:34;;;;;;;2.23;0.83;;;34.50;67.40;;;;;;5041688;28;20444;-67
2021/06/23 12:46:01;;;;;;;2.00;0.97;;;34.70;63.40;;;;;;5042278;28;20481;-68
2021/06/23 12:48:28;;;;;;;1.83;0.70;;;34.00;67.40;;;;;;5040829;28;20465;-67
2021/06/23 12:50:56;;;;;;;2.60;1.13;;;34.10;66.20;;;;;;5033907;28;20955;-68
2021/06/23 12:53:23;;;;;;;1.90;0.77;;;34.80;62.30;;;;;;5032566;28;20543;-68
2021/06/23 12:55:50;;;;;;;2.50;0.97;;;34.90;64.00;;;;;;5032530;28;20484;-68
2021/06/23 12:58:17;;;;;;;2.10;1.00;;;33.70;63.20;;;;;;5031904;28;20465;-67
2021/06/23 13:00:44;;;;;;;2.50;0.90;;;32.60;69.80;;;;;;5031802;28;20441;-66
2021/06/23 13:03:11;;;;;;;3.13;0.90;;;32.10;73.00;;;;;;5032532;28;20454;-66
2021/06/23 13:05:38;;;;;;;2.83;1.23;;;32.20;71.00;;;;;;5032257;28;20455;-68